Vonda, Canada
Current Conditions -  °F | °C
As of 7:00 AM on Friday 31 Oct 2014 (Local Time) from CYXE Reporting Station
Overcast Overcast  
Wind Chill: 21°   Ceiling: 12000
Heat Index: 34°   Visibility: 15mi
Dew Point: 28°   Wind: 24mph
Humidity: 81%   Direction: 150°SSE
Pressure: 30.03"   Gusts: 32mph
Location:  52.32°N, 106.1°W
Report Text: CYXE 311300Z 15021G28KT 15SM FEW014 OVC120 01/M02 A3003 RMK SF2AC6 SLP196
Loading
Personal Weather Stations






























Interactive Weather Map
Tropical Storm Tracking
New forecast layout! Learn more

10-Day Weather Forecast

Advertisements
Track Severe Weather on mobile